| time (UTC) | temp F | wind direction | speed knots | gust knots | rain 1hr in | rain 24hr in | rain mn in | humidity % | barometer mb |
| 20260502180424 | 60 | 231 | 2.6 | 8.7 | 0.00 | 0.00 | 0.00 | 42 | 1020.7 |
| 20260502170252 | 57 | 262 | 2.6 | 13.9 | 0.00 | 0.00 | 0.00 | 45 | 1021.5 |
| 20260502164244 | 56 | 272 | 3.5 | 10.4 | 0.00 | 0.00 | 0.00 | 46 | 1021.6 |
| 20260502163301 | 56 | 255 | 4.3 | 10.4 | 0.00 | 0.00 | 0.00 | 45 | 1021.8 |
| 20260502161302 | 55 | 257 | 4.3 | 11.3 | 0.00 | 0.00 | 0.00 | 44 | 1022.0 |
| 20260502152139 | 53 | 201 | 2.6 | 9.6 | 0.00 | 0.00 | 0.00 | 49 | 1022.5 |
| 20260502151139 | 52 | 250 | 2.6 | 8.7 | 0.00 | 0.00 | 0.00 | 50 | 1022.5 |
| 20260502150120 | 52 | 238 | 3.5 | 10.4 | 0.00 | 0.00 | 0.00 | 53 | 1022.7 |
| 20260502121943 | 33 | 189 | 0.0 | 0.0 | 0.00 | 0.00 | 0.00 | 83 | 1023.7 |
| 20260502115843 | 32 | 266 | 0.0 | 0.0 | 0.00 | 0.00 | 0.00 | 83 | 1023.7 |
| 20260502114855 | 32 | 266 | 0.0 | 0.9 | 0.00 | 0.00 | 0.00 | 83 | 1023.6 |
| 20260502113821 | 32 | 266 | 0.0 | 0.0 | 0.00 | 0.00 | 0.00 | 83 | 1023.6 |
| 20260502112807 | 31 | 266 | 0.0 | 0.0 | 0.00 | 0.00 | 0.00 | 83 | 1023.6 |
| 20260502111810 | 31 | 266 | 0.0 | 0.0 | 0.00 | 0.00 | 0.00 | 83 | 1023.4 |
| 20260502105849 | 31 | 266 | 0.0 | 0.0 | 0.00 | 0.00 | 0.00 | 83 | 1023.6 |
| 20260502104829 | 31 | 266 | 0.0 | 0.9 | 0.00 | 0.00 | 0.00 | 83 | 1023.5 |
| 20260502102839 | 31 | 266 | 0.0 | 1.7 | 0.00 | 0.00 | 0.00 | 82 | 1023.7 |
| 20260502100822 | 32 | 274 | 0.0 | 0.0 | 0.00 | 0.00 | 0.00 | 81 | 1023.7 |
| 20260502090724 | 33 | 354 | 0.0 | 0.0 | 0.00 | 0.00 | 0.00 | 81 | 1023.5 |
| 20260502065606 | 34 | 354 | 0.0 | 0.0 | 0.00 | 0.00 | 0.00 | 79 | 1023.5 |
| 20260502064552 | 35 | 354 | 0.0 | 0.9 | 0.00 | 0.00 | 0.00 | 79 | 1023.5 |
| 20260502063600 | 35 | 354 | 0.0 | 0.9 | 0.00 | 0.00 | 0.00 | 78 | 1023.7 |
| 20260502060431 | 35 | 15 | 0.0 | 0.0 | 0.00 | 0.00 | 0.00 | 77 | 1023.8 |
| 20260502054334 | 36 | 15 | 0.0 | 0.0 | 0.00 | 0.00 | 0.00 | 77 | 1023.6 |
| 20260502053356 | 36 | 15 | 0.0 | 0.0 | 0.00 | 0.00 | 0.00 | 77 | 1023.6 |
| 20260502051424 | 36 | 15 | 0.0 | 0.0 | 0.00 | 0.00 | 0.00 | 75 | 1023.6 |
| 20260502050419 | 37 | 15 | 0.0 | 0.0 | 0.00 | 0.00 | 0.00 | 75 | 1023.5 |
| 20260502045427 | 37 | 15 | 0.0 | 0.0 | 0.00 | 0.00 | 0.00 | 74 | 1023.5 |
| 20260502044412 | 37 | 15 | 0.0 | 0.0 | 0.00 | 0.00 | 0.00 | 72 | 1023.4 |
| 20260502043424 | 38 | 15 | 0.0 | 0.0 | 0.00 | 0.00 | 0.00 | 71 | 1023.5 |
| 20260502041350 | 39 | 15 | 0.0 | 0.0 | 0.00 | 0.00 | 0.00 | 69 | 1023.2 |
| 20260502040330 | 40 | 15 | 0.0 | 0.0 | 0.00 | 0.00 | 0.00 | 69 | 1023.3 |
| 20260502035355 | 40 | 15 | 0.0 | 0.0 | 0.00 | 0.00 | 0.00 | 70 | 1023.3 |
| 20260502034350 | 40 | 15 | 0.0 | 0.0 | 0.00 | 0.00 | 0.00 | 69 | 1023.3 |
| 20260502033321 | 40 | 15 | 0.0 | 0.0 | 0.00 | 0.00 | 0.00 | 68 | 1023.4 |
| 20260502032300 | 41 | 15 | 0.0 | 0.0 | 0.00 | 0.00 | 0.00 | 67 | 1023.5 |
| 20260502031228 | 41 | 15 | 0.0 | 0.0 | 0.00 | 0.00 | 0.00 | 66 | 1023.4 |
| 20260502030249 | 41 | 15 | 0.0 | 0.0 | 0.00 | 0.00 | 0.00 | 65 | 1023.5 |
| 20260502024218 | 42 | 15 | 0.0 | 0.0 | 0.00 | 0.00 | 0.00 | 63 | 1023.2 |
| 20260502022144 | 43 | 15 | 0.0 | 0.0 | 0.00 | 0.02 | 0.00 | 60 | 1023.1 |
| 20260502021118 | 44 | 15 | 0.0 | 0.0 | 0.00 | 0.02 | 0.00 | 61 | 1023.1 |
| 20260502020055 | 45 | 15 | 0.0 | 0.0 | 0.00 | 0.02 | 0.00 | 59 | 1022.9 |
| 20260502015113 | 46 | 15 | 0.0 | 0.0 | 0.00 | 0.02 | 0.00 | 59 | 1022.6 |
| 20260502014128 | 46 | 359 | 0.0 | 2.6 | 0.00 | 0.03 | 0.00 | 58 | 1022.6 |
| 20260502013144 | 47 | 342 | 0.0 | 3.5 | 0.00 | 0.03 | 0.00 | 56 | 1022.5 |
| 20260502012149 | 47 | 334 | 0.9 | 4.3 | 0.00 | 0.03 | 0.00 | 55 | 1022.4 |
| 20260502011205 | 48 | 342 | 0.9 | 4.3 | 0.00 | 0.03 | 0.00 | 54 | 1022.4 |
| 20260502010142 | 48 | 344 | 1.7 | 4.3 | 0.00 | 0.03 | 0.00 | 53 | 1022.4 |
| 20260502004202 | 49 | 324 | 1.7 | 8.7 | 0.00 | 0.03 | 0.00 | 51 | 1022.1 |
| 20260502002201 | 49 | 325 | 0.9 | 6.1 | 0.00 | 0.03 | 0.00 | 50 | 1022.2 |
| 20260501235101 | 53 | 354 | 1.7 | 11.3 | 0.00 | 0.03 | 0.00 | 47 | 1022.1 |
| 20260501234052 | 52 | 331 | 2.6 | 11.3 | 0.00 | 0.03 | 0.00 | 48 | 1022.0 |
| 20260501233038 | 50 | 324 | 1.7 | 7.8 | 0.00 | 0.03 | 0.00 | 50 | 1022.1 |
| 20260501232031 | 50 | 321 | 1.7 | 7.8 | 0.00 | 0.03 | 0.00 | 49 | 1022.1 |
| 20260501223959 | 52 | 8 | 2.6 | 9.6 | 0.00 | 0.03 | 0.00 | 48 | 1021.9 |
| 20260501222939 | 51 | 359 | 2.6 | 10.4 | 0.00 | 0.03 | 0.00 | 47 | 1022.0 |
| 20260501221943 | 51 | 45 | 2.6 | 10.4 | 0.00 | 0.03 | 0.00 | 47 | 1022.0 |
| 20260501220953 | 51 | 332 | 2.6 | 7.8 | 0.00 | 0.03 | 0.00 | 49 | 1022.1 |
| 20260501214948 | 51 | 58 | 1.7 | 12.2 | 0.00 | 0.03 | 0.00 | 49 | 1022.0 |
| 20260501213006 | 51 | 347 | 2.6 | 8.7 | 0.00 | 0.03 | 0.00 | 49 | 1022.1 |
| 20260501212027 | 51 | 53 | 2.6 | 8.7 | 0.00 | 0.03 | 0.00 | 48 | 1022.1 |
| 20260501211030 | 52 | 316 | 1.7 | 10.4 | 0.00 | 0.03 | 0.00 | 53 | 1022.1 |
| 20260501205958 | 50 | 23 | 4.3 | 12.2 | 0.00 | 0.03 | 0.00 | 51 | 1022.2 |
| 20260501204929 | 50 | 354 | 3.5 | 12.2 | 0.00 | 0.03 | 0.00 | 52 | 1022.2 |
| 20260501203918 | 50 | 341 | 4.3 | 11.3 | 0.00 | 0.03 | 0.00 | 54 | 1022.3 |
| 20260501202936 | 50 | 277 | 1.7 | 7.8 | 0.00 | 0.03 | 0.00 | 54 | 1022.4 |
| 20260501201915 | 50 | 321 | 1.7 | 11.3 | 0.00 | 0.03 | 0.00 | 54 | 1022.3 |
| 20260501200917 | 51 | 26 | 2.6 | 11.3 | 0.00 | 0.03 | 0.00 | 55 | 1022.3 |
| 20260501195856 | 50 | 4 | 5.2 | 10.4 | 0.00 | 0.03 | 0.00 | 52 | 1022.3 |
| 20260501193801 | 49 | 354 | 2.6 | 9.6 | 0.00 | 0.03 | 0.00 | 55 | 1022.4 |
| 20260501192818 | 48 | 4 | 3.5 | 12.2 | 0.00 | 0.03 | 0.00 | 55 | 1022.4 |
| 20260501191759 | 49 | 339 | 1.7 | 12.2 | 0.00 | 0.03 | 0.00 | 55 | 1022.3 |
| 20260501190807 | 49 | 72 | 1.7 | 7.8 | 0.00 | 0.03 | 0.00 | 54 | 1022.3 |
| 20260501185803 | 49 | 54 | 3.5 | 9.6 | 0.00 | 0.03 | 0.00 | 54 | 1022.3 |
| 20260501183657 | 48 | 23 | 2.6 | 12.2 | 0.00 | 0.03 | 0.00 | 56 | 1022.3 |
| 20260501181653 | 48 | 327 | 3.5 | 14.8 | 0.00 | 0.03 | 0.00 | 59 | 1022.3 |